sensor_id;sensor_type;location;lat;lon;timestamp;P1;durP1;ratioP1;P2;durP2;ratioP2
55292;SDS011;41157;53.560;10.098;2022-11-12T00:00:11;20.90;;;12.80;;
55292;SDS011;41157;53.560;10.098;2022-11-12T00:02:37;19.77;;;12.97;;
55292;SDS011;41157;53.560;10.098;2022-11-12T00:05:03;21.70;;;13.73;;
55292;SDS011;41157;53.560;10.098;2022-11-12T00:07:29;19.17;;;13.03;;
55292;SDS011;41157;53.560;10.098;2022-11-12T00:09:55;19.57;;;12.80;;
55292;SDS011;41157;53.560;10.098;2022-11-12T00:12:21;22.83;;;13.13;;
55292;SDS011;41157;53.560;10.098;2022-11-12T00:14:47;22.60;;;13.17;;
55292;SDS011;41157;53.560;10.098;2022-11-12T00:17:13;19.63;;;12.80;;
55292;SDS011;41157;53.560;10.098;2022-11-12T00:19:39;17.10;;;12.67;;
55292;SDS011;41157;53.560;10.098;2022-11-12T00:22:05;23.63;;;13.73;;
55292;SDS011;41157;53.560;10.098;2022-11-12T00:24:31;17.53;;;12.37;;
55292;SDS011;41157;53.560;10.098;2022-11-12T00:26:57;21.80;;;14.10;;
55292;SDS011;41157;53.560;10.098;2022-11-12T00:29:23;20.07;;;12.60;;
55292;SDS011;41157;53.560;10.098;2022-11-12T00:31:49;21.70;;;13.43;;
55292;SDS011;41157;53.560;10.098;2022-11-12T00:34:15;22.13;;;12.30;;
55292;SDS011;41157;53.560;10.098;2022-11-12T00:36:41;26.87;;;16.10;;
55292;SDS011;41157;53.560;10.098;2022-11-12T00:39:07;28.63;;;15.93;;
55292;SDS011;41157;53.560;10.098;2022-11-12T00:41:33;20.77;;;13.90;;
55292;SDS011;41157;53.560;10.098;2022-11-12T00:43:59;22.40;;;13.57;;
55292;SDS011;41157;53.560;10.098;2022-11-12T00:46:25;22.37;;;13.17;;
55292;SDS011;41157;53.560;10.098;2022-11-12T00:48:50;22.17;;;12.50;;
55292;SDS011;41157;53.560;10.098;2022-11-12T00:51:16;18.67;;;12.33;;
55292;SDS011;41157;53.560;10.098;2022-11-12T00:53:45;18.47;;;11.97;;
55292;SDS011;41157;53.560;10.098;2022-11-12T00:56:11;18.93;;;12.73;;
55292;SDS011;41157;53.560;10.098;2022-11-12T00:58:37;20.63;;;12.80;;
55292;SDS011;41157;53.560;10.098;2022-11-12T01:01:04;17.33;;;11.97;;
55292;SDS011;41157;53.560;10.098;2022-11-12T01:03:31;18.17;;;11.60;;
55292;SDS011;41157;53.560;10.098;2022-11-12T01:06:04;17.23;;;10.90;;
55292;SDS011;41157;53.560;10.098;2022-11-12T01:08:30;14.00;;;10.60;;
55292;SDS011;41157;53.560;10.098;2022-11-12T01:11:03;17.00;;;11.47;;
55292;SDS011;41157;53.560;10.098;2022-11-12T01:13:29;18.63;;;11.07;;
55292;SDS011;41157;53.560;10.098;2022-11-12T01:15:55;15.17;;;10.17;;
55292;SDS011;41157;53.560;10.098;2022-11-12T01:18:21;16.23;;;10.57;;
55292;SDS011;41157;53.560;10.098;2022-11-12T01:20:47;18.37;;;10.30;;
55292;SDS011;41157;53.560;10.098;2022-11-12T01:23:12;16.97;;;10.50;;
55292;SDS011;41157;53.560;10.098;2022-11-12T01:25:38;17.30;;;10.43;;
55292;SDS011;41157;53.560;10.098;2022-11-12T01:28:04;17.30;;;10.97;;
55292;SDS011;41157;53.560;10.098;2022-11-12T01:30:30;17.03;;;10.60;;
55292;SDS011;41157;53.560;10.098;2022-11-12T01:32:56;15.63;;;9.90;;
55292;SDS011;41157;53.560;10.098;2022-11-12T01:35:22;16.60;;;10.43;;
55292;SDS011;41157;53.560;10.098;2022-11-12T01:37:48;18.70;;;10.97;;
55292;SDS011;41157;53.560;10.098;2022-11-12T01:40:14;18.33;;;10.07;;
55292;SDS011;41157;53.560;10.098;2022-11-12T01:42:41;17.60;;;10.33;;
55292;SDS011;41157;53.560;10.098;2022-11-12T01:45:13;15.10;;;10.43;;
55292;SDS011;41157;53.560;10.098;2022-11-12T01:47:40;13.90;;;9.87;;
55292;SDS011;41157;53.560;10.098;2022-11-12T01:50:14;15.23;;;9.80;;
55292;SDS011;41157;53.560;10.098;2022-11-12T01:52:42;17.13;;;9.70;;
55292;SDS011;41157;53.560;10.098;2022-11-12T01:55:11;16.67;;;9.67;;
55292;SDS011;41157;53.560;10.098;2022-11-12T01:57:42;15.17;;;9.40;;
55292;SDS011;41157;53.560;10.098;2022-11-12T02:00:10;13.83;;;9.80;;
55292;SDS011;41157;53.560;10.098;2022-11-12T02:02:37;16.70;;;9.70;;
55292;SDS011;41157;53.560;10.098;2022-11-12T02:05:05;15.13;;;9.27;;
55292;SDS011;41157;53.560;10.098;2022-11-12T02:07:31;12.83;;;8.90;;
55292;SDS011;41157;53.560;10.098;2022-11-12T02:09:59;13.83;;;9.87;;
55292;SDS011;41157;53.560;10.098;2022-11-12T02:12:25;17.27;;;9.77;;
55292;SDS011;41157;53.560;10.098;2022-11-12T02:15:10;14.70;;;9.47;;
55292;SDS011;41157;53.560;10.098;2022-11-12T02:17:36;16.53;;;9.40;;
55292;SDS011;41157;53.560;10.098;2022-11-12T02:20:02;16.57;;;9.40;;
55292;SDS011;41157;53.560;10.098;2022-11-12T02:22:28;18.17;;;9.90;;
55292;SDS011;41157;53.560;10.098;2022-11-12T02:24:54;12.93;;;9.47;;
55292;SDS011;41157;53.560;10.098;2022-11-12T02:27:20;16.07;;;10.30;;
55292;SDS011;41157;53.560;10.098;2022-11-12T02:29:47;12.43;;;9.20;;
55292;SDS011;41157;53.560;10.098;2022-11-12T02:32:13;16.23;;;9.30;;
55292;SDS011;41157;53.560;10.098;2022-11-12T02:34:39;15.10;;;9.13;;
55292;SDS011;41157;53.560;10.098;2022-11-12T02:37:05;13.03;;;8.70;;
55292;SDS011;41157;53.560;10.098;2022-11-12T02:39:31;17.23;;;9.67;;
55292;SDS011;41157;53.560;10.098;2022-11-12T02:41:57;14.37;;;9.10;;
55292;SDS011;41157;53.560;10.098;2022-11-12T02:44:23;15.43;;;9.23;;
55292;SDS011;41157;53.560;10.098;2022-11-12T02:46:49;17.00;;;9.53;;
55292;SDS011;41157;53.560;10.098;2022-11-12T02:49:15;13.53;;;9.20;;
55292;SDS011;41157;53.560;10.098;2022-11-12T02:51:41;13.77;;;9.13;;
55292;SDS011;41157;53.560;10.098;2022-11-12T02:54:07;13.50;;;9.30;;
55292;SDS011;41157;53.560;10.098;2022-11-12T02:56:33;13.40;;;8.47;;
55292;SDS011;41157;53.560;10.098;2022-11-12T02:59:00;15.00;;;8.87;;
55292;SDS011;41157;53.560;10.098;2022-11-12T03:01:26;13.10;;;9.20;;
55292;SDS011;41157;53.560;10.098;2022-11-12T03:03:52;12.70;;;9.00;;
55292;SDS011;41157;53.560;10.098;2022-11-12T03:06:18;12.13;;;8.87;;
55292;SDS011;41157;53.560;10.098;2022-11-12T03:08:44;14.27;;;9.47;;
55292;SDS011;41157;53.560;10.098;2022-11-12T03:11:11;15.40;;;9.13;;
55292;SDS011;41157;53.560;10.098;2022-11-12T03:13:37;13.47;;;8.40;;
55292;SDS011;41157;53.560;10.098;2022-11-12T03:16:03;13.50;;;8.40;;
55292;SDS011;41157;53.560;10.098;2022-11-12T03:18:29;14.17;;;9.27;;
55292;SDS011;41157;53.560;10.098;2022-11-12T03:20:56;13.47;;;9.40;;
55292;SDS011;41157;53.560;10.098;2022-11-12T03:23:22;15.47;;;9.93;;
55292;SDS011;41157;53.560;10.098;2022-11-12T03:25:48;13.30;;;9.37;;
55292;SDS011;41157;53.560;10.098;2022-11-12T03:28:14;13.40;;;9.43;;
55292;SDS011;41157;53.560;10.098;2022-11-12T03:30:41;12.60;;;9.17;;
55292;SDS011;41157;53.560;10.098;2022-11-12T03:33:08;14.37;;;9.00;;
55292;SDS011;41157;53.560;10.098;2022-11-12T03:35:34;11.10;;;8.70;;
55292;SDS011;41157;53.560;10.098;2022-11-12T03:38:00;13.43;;;8.90;;
55292;SDS011;41157;53.560;10.098;2022-11-12T03:40:26;12.20;;;8.47;;
55292;SDS011;41157;53.560;10.098;2022-11-12T03:42:52;12.50;;;8.73;;
55292;SDS011;41157;53.560;10.098;2022-11-12T03:45:19;17.17;;;9.50;;
55292;SDS011;41157;53.560;10.098;2022-11-12T03:47:46;12.87;;;9.73;;
55292;SDS011;41157;53.560;10.098;2022-11-12T03:50:13;14.10;;;8.77;;
55292;SDS011;41157;53.560;10.098;2022-11-12T03:52:43;16.77;;;9.23;;
55292;SDS011;41157;53.560;10.098;2022-11-12T03:55:09;13.07;;;8.60;;
55292;SDS011;41157;53.560;10.098;2022-11-12T03:57:35;14.53;;;9.37;;
55292;SDS011;41157;53.560;10.098;2022-11-12T04:00:02;16.63;;;9.57;;
55292;SDS011;41157;53.560;10.098;2022-11-12T04:02:28;12.87;;;9.17;;
55292;SDS011;41157;53.560;10.098;2022-11-12T04:04:54;16.07;;;9.77;;
55292;SDS011;41157;53.560;10.098;2022-11-12T04:07:39;14.00;;;9.30;;
55292;SDS011;41157;53.560;10.098;2022-11-12T04:10:23;12.67;;;9.53;;
55292;SDS011;41157;53.560;10.098;2022-11-12T04:12:49;14.10;;;9.60;;
55292;SDS011;41157;53.560;10.098;2022-11-12T04:15:34;17.60;;;10.43;;
55292;SDS011;41157;53.560;10.098;2022-11-12T04:18:00;13.37;;;9.87;;
55292;SDS011;41157;53.560;10.098;2022-11-12T04:20:45;14.50;;;10.37;;
55292;SDS011;41157;53.560;10.098;2022-11-12T04:23:31;12.63;;;9.03;;
55292;SDS011;41157;53.560;10.098;2022-11-12T04:25:57;15.03;;;9.93;;
55292;SDS011;41157;53.560;10.098;2022-11-12T04:28:42;16.73;;;10.30;;
55292;SDS011;41157;53.560;10.098;2022-11-12T04:31:28;16.20;;;10.20;;
55292;SDS011;41157;53.560;10.098;2022-11-12T04:33:54;14.37;;;10.07;;
55292;SDS011;41157;53.560;10.098;2022-11-12T04:36:39;13.87;;;10.30;;
55292;SDS011;41157;53.560;10.098;2022-11-12T04:39:05;14.23;;;9.97;;
55292;SDS011;41157;53.560;10.098;2022-11-12T04:41:31;13.70;;;9.97;;
55292;SDS011;41157;53.560;10.098;2022-11-12T04:44:16;16.00;;;9.47;;
55292;SDS011;41157;53.560;10.098;2022-11-12T04:47:00;19.67;;;10.50;;
55292;SDS011;41157;53.560;10.098;2022-11-12T04:49:26;16.47;;;10.20;;
55292;SDS011;41157;53.560;10.098;2022-11-12T04:51:52;17.27;;;10.47;;
55292;SDS011;41157;53.560;10.098;2022-11-12T04:54:30;16.60;;;9.77;;
55292;SDS011;41157;53.560;10.098;2022-11-12T04:56:56;13.63;;;10.13;;
55292;SDS011;41157;53.560;10.098;2022-11-12T04:59:22;17.47;;;10.73;;
55292;SDS011;41157;53.560;10.098;2022-11-12T05:01:48;19.57;;;11.37;;
55292;SDS011;41157;53.560;10.098;2022-11-12T05:04:14;13.77;;;10.40;;
55292;SDS011;41157;53.560;10.098;2022-11-12T05:06:40;15.20;;;10.67;;
55292;SDS011;41157;53.560;10.098;2022-11-12T05:09:15;14.67;;;8.90;;
55292;SDS011;41157;53.560;10.098;2022-11-12T05:11:41;15.00;;;10.57;;
55292;SDS011;41157;53.560;10.098;2022-11-12T05:14:07;15.30;;;10.57;;
55292;SDS011;41157;53.560;10.098;2022-11-12T05:16:33;15.13;;;11.00;;
55292;SDS011;41157;53.560;10.098;2022-11-12T05:18:59;16.27;;;11.00;;
55292;SDS011;41157;53.560;10.098;2022-11-12T05:21:25;21.13;;;10.90;;
55292;SDS011;41157;53.560;10.098;2022-11-12T05:24:10;13.77;;;10.23;;
55292;SDS011;41157;53.560;10.098;2022-11-12T05:26:36;15.20;;;11.07;;
55292;SDS011;41157;53.560;10.098;2022-11-12T05:29:02;15.33;;;10.97;;
55292;SDS011;41157;53.560;10.098;2022-11-12T05:31:28;15.83;;;10.93;;
55292;SDS011;41157;53.560;10.098;2022-11-12T05:33:54;17.87;;;10.53;;
55292;SDS011;41157;53.560;10.098;2022-11-12T05:36:20;14.90;;;10.37;;
55292;SDS011;41157;53.560;10.098;2022-11-12T05:38:46;19.17;;;10.93;;
55292;SDS011;41157;53.560;10.098;2022-11-12T05:41:12;17.30;;;10.90;;
55292;SDS011;41157;53.560;10.098;2022-11-12T05:43:38;15.43;;;9.97;;
55292;SDS011;41157;53.560;10.098;2022-11-12T05:46:04;14.20;;;10.27;;
55292;SDS011;41157;53.560;10.098;2022-11-12T05:48:30;17.47;;;11.17;;
55292;SDS011;41157;53.560;10.098;2022-11-12T05:50:56;18.47;;;10.63;;
55292;SDS011;41157;53.560;10.098;2022-11-12T05:53:22;14.57;;;10.47;;
55292;SDS011;41157;53.560;10.098;2022-11-12T05:55:48;18.50;;;10.87;;
55292;SDS011;41157;53.560;10.098;2022-11-12T05:58:14;14.93;;;10.90;;
55292;SDS011;41157;53.560;10.098;2022-11-12T06:00:40;15.80;;;11.40;;
55292;SDS011;41157;53.560;10.098;2022-11-12T06:03:08;16.00;;;11.87;;
55292;SDS011;41157;53.560;10.098;2022-11-12T06:05:35;13.83;;;10.87;;
55292;SDS011;41157;53.560;10.098;2022-11-12T06:08:03;16.37;;;11.17;;
55292;SDS011;41157;53.560;10.098;2022-11-12T06:10:29;19.00;;;10.70;;
55292;SDS011;41157;53.560;10.098;2022-11-12T06:12:55;16.93;;;10.93;;
55292;SDS011;41157;53.560;10.098;2022-11-12T06:15:22;15.60;;;11.00;;
55292;SDS011;41157;53.560;10.098;2022-11-12T06:17:51;16.77;;;11.20;;
55292;SDS011;41157;53.560;10.098;2022-11-12T06:20:17;17.17;;;11.40;;
55292;SDS011;41157;53.560;10.098;2022-11-12T06:22:43;16.57;;;11.37;;
55292;SDS011;41157;53.560;10.098;2022-11-12T06:25:09;15.03;;;11.20;;
55292;SDS011;41157;53.560;10.098;2022-11-12T06:27:35;14.97;;;10.90;;
55292;SDS011;41157;53.560;10.098;2022-11-12T06:30:01;18.43;;;11.10;;
55292;SDS011;41157;53.560;10.098;2022-11-12T06:32:27;18.47;;;12.03;;
55292;SDS011;41157;53.560;10.098;2022-11-12T06:34:53;19.23;;;11.23;;
55292;SDS011;41157;53.560;10.098;2022-11-12T06:37:19;15.83;;;10.67;;
55292;SDS011;41157;53.560;10.098;2022-11-12T06:39:46;19.57;;;11.03;;
55292;SDS011;41157;53.560;10.098;2022-11-12T06:42:12;16.97;;;11.90;;
55292;SDS011;41157;53.560;10.098;2022-11-12T06:44:38;15.23;;;10.50;;
55292;SDS011;41157;53.560;10.098;2022-11-12T06:47:04;17.53;;;11.60;;
55292;SDS011;41157;53.560;10.098;2022-11-12T06:49:30;17.53;;;11.10;;
55292;SDS011;41157;53.560;10.098;2022-11-12T06:51:56;18.67;;;12.53;;
55292;SDS011;41157;53.560;10.098;2022-11-12T06:54:22;15.53;;;11.23;;
55292;SDS011;41157;53.560;10.098;2022-11-12T06:56:48;16.77;;;11.70;;
55292;SDS011;41157;53.560;10.098;2022-11-12T06:59:14;15.67;;;11.33;;
55292;SDS011;41157;53.560;10.098;2022-11-12T07:01:40;16.43;;;11.30;;
55292;SDS011;41157;53.560;10.098;2022-11-12T07:04:06;17.20;;;11.67;;
55292;SDS011;41157;53.560;10.098;2022-11-12T07:06:32;16.17;;;10.73;;
55292;SDS011;41157;53.560;10.098;2022-11-12T07:08:58;17.47;;;11.03;;
55292;SDS011;41157;53.560;10.098;2022-11-12T07:11:24;20.40;;;11.50;;
55292;SDS011;41157;53.560;10.098;2022-11-12T07:13:50;17.83;;;11.17;;
55292;SDS011;41157;53.560;10.098;2022-11-12T07:16:16;16.37;;;12.07;;
55292;SDS011;41157;53.560;10.098;2022-11-12T07:18:43;18.20;;;11.40;;
55292;SDS011;41157;53.560;10.098;2022-11-12T07:21:10;23.33;;;11.73;;
55292;SDS011;41157;53.560;10.098;2022-11-12T07:23:37;16.93;;;11.37;;
55292;SDS011;41157;53.560;10.098;2022-11-12T07:26:04;16.57;;;11.13;;
55292;SDS011;41157;53.560;10.098;2022-11-12T07:28:30;19.97;;;10.33;;
55292;SDS011;41157;53.560;10.098;2022-11-12T07:31:00;17.37;;;10.03;;
55292;SDS011;41157;53.560;10.098;2022-11-12T07:33:27;16.80;;;11.27;;
55292;SDS011;41157;53.560;10.098;2022-11-12T07:35:56;15.63;;;10.27;;
55292;SDS011;41157;53.560;10.098;2022-11-12T07:38:22;19.60;;;10.33;;
55292;SDS011;41157;53.560;10.098;2022-11-12T07:40:48;15.53;;;9.60;;
55292;SDS011;41157;53.560;10.098;2022-11-12T07:43:14;15.33;;;9.33;;
55292;SDS011;41157;53.560;10.098;2022-11-12T07:45:40;12.37;;;10.10;;
55292;SDS011;41157;53.560;10.098;2022-11-12T07:48:06;14.60;;;10.37;;
55292;SDS011;41157;53.560;10.098;2022-11-12T07:50:32;12.63;;;9.57;;
55292;SDS011;41157;53.560;10.098;2022-11-12T07:52:58;15.63;;;9.73;;
55292;SDS011;41157;53.560;10.098;2022-11-12T07:55:24;17.37;;;9.60;;
55292;SDS011;41157;53.560;10.098;2022-11-12T07:57:50;14.90;;;9.17;;
55292;SDS011;41157;53.560;10.098;2022-11-12T08:00:17;13.03;;;9.47;;
55292;SDS011;41157;53.560;10.098;2022-11-12T08:02:43;12.93;;;8.37;;
55292;SDS011;41157;53.560;10.098;2022-11-12T08:05:09;14.30;;;8.27;;
55292;SDS011;41157;53.560;10.098;2022-11-12T08:07:35;10.83;;;8.00;;
55292;SDS011;41157;53.560;10.098;2022-11-12T08:10:01;13.77;;;8.30;;
55292;SDS011;41157;53.560;10.098;2022-11-12T08:12:27;11.40;;;8.10;;
55292;SDS011;41157;53.560;10.098;2022-11-12T08:14:53;15.13;;;7.73;;
55292;SDS011;41157;53.560;10.098;2022-11-12T08:17:19;14.00;;;8.70;;
55292;SDS011;41157;53.560;10.098;2022-11-12T08:19:45;10.83;;;7.57;;
55292;SDS011;41157;53.560;10.098;2022-11-12T08:22:11;11.90;;;7.80;;
55292;SDS011;41157;53.560;10.098;2022-11-12T08:24:37;13.90;;;7.57;;
55292;SDS011;41157;53.560;10.098;2022-11-12T08:27:03;13.00;;;8.07;;
55292;SDS011;41157;53.560;10.098;2022-11-12T08:29:29;10.27;;;7.30;;
55292;SDS011;41157;53.560;10.098;2022-11-12T08:31:55;10.77;;;7.10;;
55292;SDS011;41157;53.560;10.098;2022-11-12T08:34:21;10.70;;;7.47;;
55292;SDS011;41157;53.560;10.098;2022-11-12T08:36:47;12.30;;;7.43;;
55292;SDS011;41157;53.560;10.098;2022-11-12T08:39:13;11.10;;;7.13;;
55292;SDS011;41157;53.560;10.098;2022-11-12T08:41:39;11.97;;;7.23;;
55292;SDS011;41157;53.560;10.098;2022-11-12T08:44:04;10.50;;;7.07;;
55292;SDS011;41157;53.560;10.098;2022-11-12T08:46:30;9.53;;;6.73;;
55292;SDS011;41157;53.560;10.098;2022-11-12T08:48:56;10.03;;;6.70;;
55292;SDS011;41157;53.560;10.098;2022-11-12T08:51:22;9.47;;;6.63;;
55292;SDS011;41157;53.560;10.098;2022-11-12T08:53:48;8.57;;;5.80;;
55292;SDS011;41157;53.560;10.098;2022-11-12T08:56:14;8.43;;;5.50;;
55292;SDS011;41157;53.560;10.098;2022-11-12T08:58:40;9.37;;;6.77;;
55292;SDS011;41157;53.560;10.098;2022-11-12T09:01:06;11.17;;;6.50;;
55292;SDS011;41157;53.560;10.098;2022-11-12T09:03:32;11.53;;;6.63;;
55292;SDS011;41157;53.560;10.098;2022-11-12T09:06:00;10.23;;;6.50;;
55292;SDS011;41157;53.560;10.098;2022-11-12T09:08:26;6.43;;;5.60;;
55292;SDS011;41157;53.560;10.098;2022-11-12T09:10:52;7.70;;;5.60;;
55292;SDS011;41157;53.560;10.098;2022-11-12T09:13:18;7.93;;;5.63;;
55292;SDS011;41157;53.560;10.098;2022-11-12T09:15:45;9.07;;;5.93;;
55292;SDS011;41157;53.560;10.098;2022-11-12T09:18:15;8.43;;;5.63;;
55292;SDS011;41157;53.560;10.098;2022-11-12T09:20:41;8.40;;;6.07;;
55292;SDS011;41157;53.560;10.098;2022-11-12T09:23:08;7.67;;;5.90;;
55292;SDS011;41157;53.560;10.098;2022-11-12T09:25:35;5.73;;;4.70;;
55292;SDS011;41157;53.560;10.098;2022-11-12T09:28:16;9.40;;;5.97;;
55292;SDS011;41157;53.560;10.098;2022-11-12T09:30:45;8.60;;;6.00;;
55292;SDS011;41157;53.560;10.098;2022-11-12T09:33:12;7.70;;;5.63;;
55292;SDS011;41157;53.560;10.098;2022-11-12T09:35:38;11.27;;;5.90;;
55292;SDS011;41157;53.560;10.098;2022-11-12T09:38:04;8.43;;;5.67;;
55292;SDS011;41157;53.560;10.098;2022-11-12T09:43:09;10.40;;;6.25;;
55292;SDS011;41157;53.560;10.098;2022-11-12T09:45:36;10.07;;;6.72;;
55292;SDS011;41157;53.560;10.098;2022-11-12T09:48:04;7.82;;;6.00;;
55292;SDS011;41157;53.560;10.098;2022-11-12T09:50:32;7.45;;;5.60;;
55292;SDS011;41157;53.560;10.098;2022-11-12T09:53:06;10.68;;;6.10;;
55292;SDS011;41157;53.560;10.098;2022-11-12T09:55:38;8.52;;;5.63;;
55292;SDS011;41157;53.560;10.098;2022-11-12T09:58:14;11.15;;;6.43;;
55292;SDS011;41157;53.560;10.098;2022-11-12T10:00:42;13.02;;;6.13;;
55292;SDS011;41157;53.560;10.098;2022-11-12T10:03:53;9.07;;;5.72;;
55292;SDS011;41157;53.560;10.098;2022-11-12T10:06:00;7.97;;;5.72;;
55292;SDS011;41157;53.560;10.098;2022-11-12T10:11:15;8.30;;;5.60;;
55292;SDS011;41157;53.560;10.098;2022-11-12T10:13:59;7.07;;;5.53;;
55292;SDS011;41157;53.560;10.098;2022-11-12T10:16:50;7.65;;;5.57;;
55292;SDS011;41157;53.560;10.098;2022-11-12T10:22:13;8.07;;;5.50;;
55292;SDS011;41157;53.560;10.098;2022-11-12T10:24:41;8.25;;;5.50;;
55292;SDS011;41157;53.560;10.098;2022-11-12T10:27:23;7.68;;;5.82;;
55292;SDS011;41157;53.560;10.098;2022-11-12T10:32:21;8.50;;;5.43;;
55292;SDS011;41157;53.560;10.098;2022-11-12T10:34:47;7.85;;;5.88;;
55292;SDS011;41157;53.560;10.098;2022-11-12T10:39:41;11.23;;;6.07;;
55292;SDS011;41157;53.560;10.098;2022-11-12T10:44:34;7.28;;;5.78;;
55292;SDS011;41157;53.560;10.098;2022-11-12T10:50:09;12.18;;;6.20;;
55292;SDS011;41157;53.560;10.098;2022-11-12T10:52:37;6.70;;;5.65;;
55292;SDS011;41157;53.560;10.098;2022-11-12T11:00:34;10.18;;;6.30;;
55292;SDS011;41157;53.560;10.098;2022-11-12T11:03:02;15.93;;;6.65;;
55292;SDS011;41157;53.560;10.098;2022-11-12T11:05:31;8.77;;;6.35;;
55292;SDS011;41157;53.560;10.098;2022-11-12T11:07:58;8.25;;;5.78;;
55292;SDS011;41157;53.560;10.098;2022-11-12T11:10:27;9.77;;;6.25;;
55292;SDS011;41157;53.560;10.098;2022-11-12T11:13:09;13.07;;;6.60;;
55292;SDS011;41157;53.560;10.098;2022-11-12T11:15:35;14.40;;;6.68;;
55292;SDS011;41157;53.560;10.098;2022-11-12T11:18:01;10.27;;;6.47;;
55292;SDS011;41157;53.560;10.098;2022-11-12T11:20:29;9.68;;;7.53;;
55292;SDS011;41157;53.560;10.098;2022-11-12T11:23:03;11.07;;;7.13;;
55292;SDS011;41157;53.560;10.098;2022-11-12T11:25:31;6.60;;;5.90;;
55292;SDS011;41157;53.560;10.098;2022-11-12T11:30:30;10.55;;;6.35;;
55292;SDS011;41157;53.560;10.098;2022-11-12T11:38:34;9.52;;;6.88;;
55292;SDS011;41157;53.560;10.098;2022-11-12T11:43:59;11.88;;;6.72;;
55292;SDS011;41157;53.560;10.098;2022-11-12T11:49:14;9.13;;;6.65;;
55292;SDS011;41157;53.560;10.098;2022-11-12T11:54:14;13.40;;;6.88;;
55292;SDS011;41157;53.560;10.098;2022-11-12T11:56:47;8.85;;;7.28;;
55292;SDS011;41157;53.560;10.098;2022-11-12T11:59:29;10.80;;;6.82;;
55292;SDS011;41157;53.560;10.098;2022-11-12T12:02:05;11.63;;;7.43;;
55292;SDS011;41157;53.560;10.098;2022-11-12T12:04:41;9.95;;;7.18;;
55292;SDS011;41157;53.560;10.098;2022-11-12T12:07:30;11.80;;;7.50;;
55292;SDS011;41157;53.560;10.098;2022-11-12T12:10:02;12.38;;;7.10;;
55292;SDS011;41157;53.560;10.098;2022-11-12T12:12:34;9.65;;;7.47;;
55292;SDS011;41157;53.560;10.098;2022-11-12T12:15:26;10.77;;;6.82;;
55292;SDS011;41157;53.560;10.098;2022-11-12T12:18:02;12.98;;;7.15;;
55292;SDS011;41157;53.560;10.098;2022-11-12T12:23:19;11.60;;;6.97;;
55292;SDS011;41157;53.560;10.098;2022-11-12T12:25:48;16.80;;;7.68;;
55292;SDS011;41157;53.560;10.098;2022-11-12T12:30:42;10.57;;;7.15;;
55292;SDS011;41157;53.560;10.098;2022-11-12T12:35:50;11.85;;;7.75;;
55292;SDS011;41157;53.560;10.098;2022-11-12T12:38:19;14.38;;;7.13;;
55292;SDS011;41157;53.560;10.098;2022-11-12T12:40:58;16.67;;;7.88;;
55292;SDS011;41157;53.560;10.098;2022-11-12T12:46:23;13.60;;;7.22;;
55292;SDS011;41157;53.560;10.098;2022-11-12T12:48:50;10.88;;;6.90;;
55292;SDS011;41157;53.560;10.098;2022-11-12T12:51:18;16.63;;;7.68;;
55292;SDS011;41157;53.560;10.098;2022-11-12T12:53:44;11.18;;;7.05;;
55292;SDS011;41157;53.560;10.098;2022-11-12T13:03:50;11.48;;;7.18;;
55292;SDS011;41157;53.560;10.098;2022-11-12T13:08:53;9.43;;;6.18;;
55292;SDS011;41157;53.560;10.098;2022-11-12T13:11:45;9.33;;;7.00;;
55292;SDS011;41157;53.560;10.098;2022-11-12T13:19:35;10.87;;;7.50;;
55292;SDS011;41157;53.560;10.098;2022-11-12T13:30:06;10.20;;;7.23;;
55292;SDS011;41157;53.560;10.098;2022-11-12T13:37:47;15.17;;;7.23;;
55292;SDS011;41157;53.560;10.098;2022-11-12T13:40:37;9.13;;;6.83;;
55292;SDS011;41157;53.560;10.098;2022-11-12T13:48:22;10.20;;;7.03;;
55292;SDS011;41157;53.560;10.098;2022-11-12T13:50:49;11.53;;;6.30;;
55292;SDS011;41157;53.560;10.098;2022-11-12T13:53:18;9.73;;;6.57;;
55292;SDS011;41157;53.560;10.098;2022-11-12T13:55:48;7.93;;;6.53;;
55292;SDS011;41157;53.560;10.098;2022-11-12T13:58:17;7.97;;;6.40;;
55292;SDS011;41157;53.560;10.098;2022-11-12T14:00:50;9.00;;;6.17;;
55292;SDS011;41157;53.560;10.098;2022-11-12T14:03:17;12.20;;;6.67;;
55292;SDS011;41157;53.560;10.098;2022-11-12T14:05:45;12.10;;;6.97;;
55292;SDS011;41157;53.560;10.098;2022-11-12T14:08:21;10.17;;;6.50;;
55292;SDS011;41157;53.560;10.098;2022-11-12T14:10:57;10.50;;;6.83;;
55292;SDS011;41157;53.560;10.098;2022-11-12T14:16:01;14.87;;;6.77;;
55292;SDS011;41157;53.560;10.098;2022-11-12T14:18:33;13.53;;;6.97;;
55292;SDS011;41157;53.560;10.098;2022-11-12T14:21:06;11.40;;;6.77;;
55292;SDS011;41157;53.560;10.098;2022-11-12T14:23:36;11.10;;;7.27;;
55292;SDS011;41157;53.560;10.098;2022-11-12T14:26:02;11.40;;;7.20;;
55292;SDS011;41157;53.560;10.098;2022-11-12T14:28:29;10.77;;;7.00;;
55292;SDS011;41157;53.560;10.098;2022-11-12T14:30:56;13.50;;;6.67;;
55292;SDS011;41157;53.560;10.098;2022-11-12T14:33:23;8.53;;;6.60;;
55292;SDS011;41157;53.560;10.098;2022-11-12T14:35:53;11.20;;;6.57;;
55292;SDS011;41157;53.560;10.098;2022-11-12T14:40:50;10.93;;;6.80;;
55292;SDS011;41157;53.560;10.098;2022-11-12T14:43:20;8.93;;;6.60;;
55292;SDS011;41157;53.560;10.098;2022-11-12T14:45:48;11.83;;;7.30;;
55292;SDS011;41157;53.560;10.098;2022-11-12T14:48:14;12.23;;;7.30;;
55292;SDS011;41157;53.560;10.098;2022-11-12T14:50:42;10.07;;;7.37;;
55292;SDS011;41157;53.560;10.098;2022-11-12T14:53:22;12.33;;;8.03;;
55292;SDS011;41157;53.560;10.098;2022-11-12T14:55:51;9.27;;;7.07;;
55292;SDS011;41157;53.560;10.098;2022-11-12T14:58:18;13.33;;;8.33;;
55292;SDS011;41157;53.560;10.098;2022-11-12T15:00:45;15.90;;;7.70;;
55292;SDS011;41157;53.560;10.098;2022-11-12T15:03:14;12.83;;;6.90;;
55292;SDS011;41157;53.560;10.098;2022-11-12T15:05:56;18.10;;;8.03;;
55292;SDS011;41157;53.560;10.098;2022-11-12T15:08:30;15.83;;;8.40;;
55292;SDS011;41157;53.560;10.098;2022-11-12T15:10:57;13.93;;;7.63;;
55292;SDS011;41157;53.560;10.098;2022-11-12T15:13:38;14.40;;;7.43;;
55292;SDS011;41157;53.560;10.098;2022-11-12T15:16:05;10.33;;;7.53;;
55292;SDS011;41157;53.560;10.098;2022-11-12T15:18:31;14.43;;;8.30;;
55292;SDS011;41157;53.560;10.098;2022-11-12T15:21:03;12.57;;;8.13;;
55292;SDS011;41157;53.560;10.098;2022-11-12T15:23:30;14.63;;;8.27;;
55292;SDS011;41157;53.560;10.098;2022-11-12T15:25:57;17.17;;;9.70;;
55292;SDS011;41157;53.560;10.098;2022-11-12T15:28:24;20.03;;;11.40;;
55292;SDS011;41157;53.560;10.098;2022-11-12T15:31:00;21.07;;;10.60;;
55292;SDS011;41157;53.560;10.098;2022-11-12T15:33:27;24.57;;;11.53;;
55292;SDS011;41157;53.560;10.098;2022-11-12T15:35:56;24.70;;;11.77;;
55292;SDS011;41157;53.560;10.098;2022-11-12T15:38:24;25.67;;;13.50;;
55292;SDS011;41157;53.560;10.098;2022-11-12T15:40:52;24.87;;;14.13;;
55292;SDS011;41157;53.560;10.098;2022-11-12T15:43:19;24.63;;;14.20;;
55292;SDS011;41157;53.560;10.098;2022-11-12T15:45:47;30.13;;;18.70;;
55292;SDS011;41157;53.560;10.098;2022-11-12T15:48:13;33.80;;;16.47;;
55292;SDS011;41157;53.560;10.098;2022-11-12T15:50:39;31.70;;;16.73;;
55292;SDS011;41157;53.560;10.098;2022-11-12T15:53:05;33.20;;;17.87;;
55292;SDS011;41157;53.560;10.098;2022-11-12T15:55:31;31.03;;;17.03;;